createdAt,value
2022-11-07T00:01:37.206Z,100471.47
2022-11-07T00:04:13.632Z,100480.97
2022-11-07T00:06:40.829Z,100477.56
2022-11-07T00:09:07.900Z,100480.28
2022-11-07T00:11:35.071Z,100481.16
2022-11-07T00:14:02.091Z,100485.47
2022-11-07T00:16:29.381Z,100480.28
2022-11-07T00:18:56.634Z,100484.63
2022-11-07T00:21:23.980Z,100484.47
2022-11-07T00:23:51.082Z,100493.19
2022-11-07T00:26:18.282Z,100485.31
2022-11-07T00:28:46.185Z,100485.31
2022-11-07T00:31:14.928Z,100509.50
2022-11-07T00:33:43.032Z,100509.47
2022-11-07T00:36:17.520Z,100516.31
2022-11-07T00:38:44.958Z,100518.91
2022-11-07T00:41:12.331Z,100515.38
2022-11-07T00:43:39.402Z,100511.97
2022-11-07T00:46:08.631Z,100518.94
2022-11-07T00:48:36.831Z,100512.91
2022-11-07T00:51:14.773Z,100517.31
2022-11-07T00:53:42.616Z,100497.22
2022-11-07T00:56:12.294Z,100523.97
2022-11-07T00:58:39.919Z,100521.38
2022-11-07T01:01:09.141Z,100523.91
2022-11-07T01:03:55.531Z,100524.88
2022-11-07T01:06:23.281Z,100526.59
2022-11-07T01:08:51.641Z,100527.41
2022-11-07T01:11:18.639Z,100541.25
2022-11-07T01:13:46.054Z,100541.25
2022-11-07T01:16:13.232Z,100531.66
2022-11-07T01:18:40.309Z,100527.38
2022-11-07T01:21:15.151Z,100551.59
2022-11-07T01:23:43.637Z,100546.41
2022-11-07T01:26:12.087Z,100552.50
2022-11-07T01:28:39.382Z,100534.34
2022-11-07T01:31:09.093Z,100551.59
2022-11-07T01:33:37.652Z,100562.75
2022-11-07T01:36:08.794Z,100566.16
2022-11-07T01:38:39.317Z,100556.69
2022-11-07T01:41:25.475Z,100552.41
2022-11-07T01:44:03.269Z,100554.16
2022-11-07T01:46:40.127Z,100546.41
2022-11-07T01:49:12.812Z,100553.25
2022-11-07T01:51:48.915Z,100561.00
2022-11-07T01:54:22.922Z,100552.44
2022-11-07T01:56:52.589Z,100560.94
2022-11-07T01:59:23.502Z,100567.03
2022-11-07T02:01:50.650Z,100552.47
2022-11-07T02:04:21.118Z,100561.84
2022-11-07T02:07:00.815Z,100565.34
2022-11-07T02:09:28.321Z,100568.75
2022-11-07T02:12:00.894Z,100563.47
2022-11-07T02:14:29.345Z,100563.50
2022-11-07T02:16:57.085Z,100565.22
2022-11-07T02:19:40.518Z,100567.84
2022-11-07T02:22:37.984Z,100569.56
2022-11-07T02:25:09.435Z,100573.81
2022-11-07T02:27:37.399Z,100578.03
2022-11-07T02:30:09.578Z,100575.41
2022-11-07T02:32:36.616Z,100569.41
2022-11-07T02:35:42.990Z,100567.75
2022-11-07T02:38:26.274Z,100573.66
2022-11-07T02:41:00.696Z,100567.72
2022-11-07T02:43:29.927Z,100567.53
2022-11-07T02:46:00.362Z,100571.81
2022-11-07T02:48:31.374Z,100568.38
2022-11-07T02:50:58.765Z,100577.88
2022-11-07T02:53:25.760Z,100583.03
2022-11-07T02:55:52.827Z,100577.88
2022-11-07T02:58:19.804Z,100578.72
2022-11-07T03:00:46.856Z,100578.78
2022-11-07T03:03:14.442Z,100577.03
2022-11-07T03:05:41.748Z,100577.06
2022-11-07T03:08:08.733Z,100577.03
2022-11-07T03:10:35.734Z,100573.56
2022-11-07T03:13:02.817Z,100585.66
2022-11-07T03:15:29.848Z,100578.03
2022-11-07T03:17:59.506Z,100585.75
2022-11-07T03:20:26.802Z,100586.56
2022-11-07T03:22:53.782Z,100590.91
2022-11-07T03:25:21.961Z,100585.72
2022-11-07T03:27:49.863Z,100591.66
2022-11-07T03:30:17.506Z,100579.53
2022-11-07T03:32:44.812Z,100593.28
2022-11-07T03:35:12.164Z,100584.63
2022-11-07T03:37:39.171Z,100590.88
2022-11-07T03:40:06.972Z,100602.00
2022-11-07T03:42:39.014Z,100602.00
2022-11-07T03:45:06.785Z,100604.66
2022-11-07T03:47:38.004Z,100604.56
2022-11-07T03:50:06.646Z,100608.91
2022-11-07T03:52:33.895Z,100607.16
2022-11-07T03:55:01.058Z,100595.19
2022-11-07T03:57:28.050Z,100607.13
2022-11-07T03:59:55.067Z,100600.22
2022-11-07T04:02:23.365Z,100608.03
2022-11-07T04:04:50.519Z,100605.44
2022-11-07T04:07:17.527Z,100599.38
2022-11-07T04:09:44.527Z,100592.34
2022-11-07T04:12:31.802Z,100597.56
2022-11-07T04:15:17.125Z,100610.44
2022-11-07T04:17:44.133Z,100600.09
2022-11-07T04:20:11.259Z,100610.44
2022-11-07T04:22:38.347Z,100616.53
2022-11-07T04:25:05.929Z,100619.97
2022-11-07T04:27:45.224Z,100609.53
2022-11-07T04:30:26.117Z,100619.94
2022-11-07T04:32:55.443Z,100611.28
2022-11-07T04:35:24.914Z,100614.84
2022-11-07T04:37:52.171Z,100622.63
2022-11-07T04:40:19.833Z,100611.41
2022-11-07T04:42:47.879Z,100614.03
2022-11-07T04:45:15.949Z,100608.75
2022-11-07T04:47:43.620Z,100619.28
2022-11-07T04:50:14.479Z,100610.72
2022-11-07T04:52:42.162Z,100621.97
2022-11-07T04:55:16.255Z,100616.03
2022-11-07T04:57:43.275Z,100609.16
2022-11-07T05:00:10.692Z,100611.75
2022-11-07T05:02:37.749Z,100604.00
2022-11-07T05:05:05.291Z,100615.25
2022-11-07T05:07:32.301Z,100617.00
2022-11-07T05:09:59.310Z,100615.34
2022-11-07T05:12:26.306Z,100615.34
2022-11-07T05:14:53.315Z,100622.28
2022-11-07T05:17:23.338Z,100612.78
2022-11-07T05:19:53.942Z,100614.41
2022-11-07T05:22:39.721Z,100612.84
2022-11-07T05:25:07.288Z,100616.28
2022-11-07T05:27:34.810Z,100618.03
2022-11-07T05:30:01.869Z,100611.94
2022-11-07T05:32:28.908Z,100607.69
2022-11-07T05:34:55.888Z,100618.13
2022-11-07T05:37:22.909Z,100613.88
2022-11-07T05:39:54.703Z,100616.44
2022-11-07T05:42:22.255Z,100621.56
2022-11-07T05:44:49.273Z,100616.47
2022-11-07T05:47:16.303Z,100619.13
2022-11-07T05:49:43.320Z,100618.28
2022-11-07T05:52:10.330Z,100610.56
2022-11-07T05:54:37.340Z,100600.97
2022-11-07T05:57:04.803Z,100621.84
2022-11-07T05:59:31.890Z,100621.81
2022-11-07T06:01:59.012Z,100628.84
2022-11-07T06:04:26.061Z,100622.03
2022-11-07T06:06:53.061Z,100635.91
2022-11-07T06:09:20.307Z,100635.09
2022-11-07T06:11:47.715Z,100633.41
2022-11-07T06:14:14.743Z,100633.41
2022-11-07T06:16:41.748Z,100637.84
2022-11-07T06:19:08.950Z,100642.16
2022-11-07T06:21:36.137Z,100634.41
2022-11-07T06:24:03.554Z,100639.56
2022-11-07T06:26:30.648Z,100637.78
2022-11-07T06:28:57.635Z,100633.59
2022-11-07T06:31:24.668Z,100632.69
2022-11-07T06:33:51.655Z,100644.75
2022-11-07T06:36:18.920Z,100630.94
2022-11-07T06:38:46.249Z,100640.41
2022-11-07T06:41:14.420Z,100631.03
2022-11-07T06:43:41.742Z,100644.88
2022-11-07T06:46:12.239Z,100651.78
2022-11-07T06:48:39.768Z,100656.97
2022-11-07T06:51:09.698Z,100657.78
2022-11-07T06:53:37.328Z,100661.34
2022-11-07T06:56:07.196Z,100658.03
2022-11-07T06:58:34.858Z,100653.72
2022-11-07T07:01:03.895Z,100656.25
2022-11-07T07:03:30.962Z,100663.22
2022-11-07T07:06:02.766Z,100657.22
2022-11-07T07:08:30.679Z,100652.88
2022-11-07T07:11:03.854Z,100659.75
2022-11-07T07:13:31.199Z,100667.47
2022-11-07T07:15:59.153Z,100664.94
2022-11-07T07:18:27.530Z,100670.25
2022-11-07T07:21:06.489Z,100684.88
2022-11-07T07:23:34.853Z,100686.63
2022-11-07T07:26:02.883Z,100675.41
2022-11-07T07:28:30.160Z,100676.25
2022-11-07T07:31:29.182Z,100679.81
2022-11-07T07:33:56.914Z,100681.53
2022-11-07T07:36:24.938Z,100690.25
2022-11-07T07:38:52.115Z,100682.44
2022-11-07T07:41:19.737Z,100686.84
2022-11-07T07:43:47.280Z,100693.78
2022-11-07T07:46:19.304Z,100690.34
2022-11-07T07:48:46.318Z,100698.34
2022-11-07T07:51:13.521Z,100706.06
2022-11-07T07:53:40.607Z,100697.41
2022-11-07T07:56:07.902Z,100707.88
2022-11-07T07:58:35.059Z,100696.59
2022-11-07T08:01:03.948Z,100704.44
2022-11-07T08:03:50.765Z,100708.84
2022-11-07T08:06:17.903Z,100700.16
2022-11-07T08:08:44.923Z,100710.59
2022-11-07T08:11:11.943Z,100709.81
2022-11-07T08:13:38.951Z,100714.16
2022-11-07T08:16:07.726Z,100714.25
2022-11-07T08:18:40.795Z,100724.66
2022-11-07T08:21:08.522Z,100725.50
2022-11-07T08:23:36.111Z,100728.13
2022-11-07T08:26:04.865Z,100733.34
2022-11-07T08:28:33.900Z,100742.09
2022-11-07T08:31:05.677Z,100745.59
2022-11-07T08:33:34.013Z,100750.88
2022-11-07T08:36:02.512Z,100745.88
2022-11-07T08:38:31.008Z,100763.22
2022-11-07T08:40:58.902Z,100757.16
2022-11-07T08:43:26.668Z,100753.50
2022-11-07T08:45:54.843Z,100777.72
2022-11-07T08:48:22.595Z,100768.25
2022-11-07T08:50:57.341Z,100770.91
2022-11-07T08:53:26.073Z,100769.19
2022-11-07T08:56:00.130Z,100757.13
2022-11-07T08:58:30.023Z,100768.41
2022-11-07T09:00:57.924Z,100753.63
2022-11-07T09:06:12.799Z,100777.09
2022-11-07T09:08:40.757Z,100772.78
2022-11-07T09:11:08.564Z,100772.78
2022-11-07T09:13:35.652Z,100781.41
2022-11-07T09:16:05.127Z,100777.19
2022-11-07T09:18:32.762Z,100776.34
2022-11-07T09:21:00.147Z,100784.19
2022-11-07T09:23:27.693Z,100781.59
2022-11-07T09:25:58.085Z,100793.75
2022-11-07T09:28:25.316Z,100800.69
2022-11-07T09:30:56.676Z,100799.84
2022-11-07T09:33:24.714Z,100788.59
2022-11-07T09:35:52.100Z,100804.16
2022-11-07T09:38:19.251Z,100806.78
2022-11-07T09:41:05.944Z,100803.31
2022-11-07T09:43:40.771Z,100796.44
2022-11-07T09:46:22.966Z,100790.31
2022-11-07T09:48:59.325Z,100798.22
2022-11-07T09:51:44.982Z,100800.00
2022-11-07T09:54:22.497Z,100800.03
2022-11-07T09:56:49.745Z,100805.22
2022-11-07T09:59:38.066Z,100815.56
2022-11-07T10:02:17.281Z,100813.00
2022-11-07T10:04:45.888Z,100817.31
2022-11-07T10:07:34.360Z,100812.97
2022-11-07T10:10:23.771Z,100813.00
2022-11-07T10:13:15.617Z,100811.25
2022-11-07T10:16:24.454Z,100823.38
2022-11-07T10:19:04.029Z,100819.09
2022-11-07T10:22:04.963Z,100834.63
2022-11-07T10:24:41.612Z,100838.94
2022-11-07T10:27:11.969Z,100830.31
2022-11-07T10:29:47.991Z,100841.63
2022-11-07T10:32:21.114Z,100839.94
2022-11-07T10:35:18.194Z,100833.94
2022-11-07T10:37:57.811Z,100839.09
2022-11-07T10:40:35.444Z,100846.03
2022-11-07T10:43:08.900Z,100841.72
2022-11-07T10:45:37.948Z,100847.75
2022-11-07T10:48:05.747Z,100846.88
2022-11-07T10:50:32.866Z,100846.91
2022-11-07T10:53:03.301Z,100841.63
2022-11-07T10:55:42.477Z,100837.31
2022-11-07T10:58:21.848Z,100844.28
2022-11-07T11:01:08.123Z,100845.22
2022-11-07T11:03:45.581Z,100841.81
2022-11-07T11:06:18.745Z,100838.44
2022-11-07T11:08:48.522Z,100837.53
2022-11-07T11:11:21.291Z,100838.47
2022-11-07T11:13:48.923Z,100827.25
2022-11-07T11:16:27.542Z,100840.34
2022-11-07T11:18:57.636Z,100836.03
2022-11-07T11:21:25.564Z,100836.97
2022-11-07T11:23:54.254Z,100838.75
2022-11-07T11:26:28.814Z,100844.84
2022-11-07T11:29:06.838Z,100839.59
2022-11-07T11:31:43.150Z,100830.81
2022-11-07T11:34:14.993Z,100843.03
2022-11-07T11:36:47.496Z,100835.22
2022-11-07T11:39:31.670Z,100839.59
2022-11-07T11:42:00.316Z,100838.75
2022-11-07T11:44:38.121Z,100837.06
2022-11-07T11:47:20.204Z,100839.66
2022-11-07T11:50:10.519Z,100825.78
2022-11-07T11:52:37.576Z,100826.72
2022-11-07T11:55:13.548Z,100831.06
2022-11-07T11:58:02.078Z,100839.69
2022-11-07T12:00:35.592Z,100836.25
2022-11-07T12:04:03.745Z,100835.34
2022-11-07T12:06:42.447Z,100844.94
2022-11-07T12:09:24.070Z,100850.09
2022-11-07T12:12:19.789Z,100841.44
2022-11-07T12:15:07.871Z,100841.50
2022-11-07T12:17:56.203Z,100852.78
2022-11-07T12:20:37.661Z,100846.72
2022-11-07T12:23:20.972Z,100843.22
2022-11-07T12:26:01.574Z,100838.88
2022-11-07T12:28:52.844Z,100844.03
2022-11-07T12:31:54.253Z,100850.97
2022-11-07T12:34:35.749Z,100844.94
2022-11-07T12:37:28.051Z,100844.00
2022-11-07T12:40:10.215Z,100832.78
2022-11-07T12:43:05.504Z,100840.59
2022-11-07T12:45:51.061Z,100841.50
2022-11-07T12:48:33.664Z,100832.00
2022-11-07T12:51:30.970Z,100828.56
2022-11-07T12:54:16.325Z,100824.25
2022-11-07T12:56:46.939Z,100826.94
2022-11-07T12:59:26.915Z,100833.91
2022-11-07T13:02:26.969Z,100827.91
2022-11-07T13:05:05.311Z,100820.09
2022-11-07T13:07:41.931Z,100820.97
2022-11-07T13:10:19.308Z,100828.75
2022-11-07T13:13:05.721Z,100823.59
2022-11-07T13:15:53.690Z,100822.69
2022-11-07T13:18:25.472Z,100818.41
2022-11-07T13:21:05.241Z,100814.09
2022-11-07T13:23:33.062Z,100816.69
2022-11-07T13:26:10.754Z,100818.44
2022-11-07T13:28:58.696Z,100831.44
2022-11-07T13:31:32.638Z,100821.84
2022-11-07T13:34:18.588Z,100822.59
2022-11-07T13:36:47.801Z,100819.91
2022-11-07T13:39:15.554Z,100831.06
2022-11-07T13:41:46.741Z,100821.47
2022-11-07T13:44:22.299Z,100823.16
2022-11-07T13:46:53.628Z,100818.84
2022-11-07T13:49:25.508Z,100812.75
2022-11-07T13:51:56.520Z,100819.69
2022-11-07T13:54:28.637Z,100818.84
2022-11-07T13:57:22.342Z,100812.78
2022-11-07T13:59:58.072Z,100818.03
2022-11-07T14:02:28.989Z,100826.72
2022-11-07T14:05:15.732Z,100822.38
2022-11-07T14:07:54.166Z,100829.34
2022-11-07T14:10:31.711Z,100828.47
2022-11-07T14:13:12.910Z,100813.78
2022-11-07T14:15:46.866Z,100811.22
2022-11-07T14:18:16.393Z,100812.13
2022-11-07T14:20:53.435Z,100806.97
2022-11-07T14:23:27.683Z,100814.75
2022-11-07T14:26:15.286Z,100809.59
2022-11-07T14:28:42.285Z,100813.94
2022-11-07T14:31:25.139Z,100816.53
2022-11-07T14:33:55.947Z,100816.56
2022-11-07T14:36:23.862Z,100808.78
2022-11-07T14:38:54.474Z,100816.63
2022-11-07T14:41:22.759Z,100804.47
2022-11-07T14:43:50.960Z,100811.41
2022-11-07T14:46:24.450Z,100814.91
2022-11-07T14:48:53.317Z,100816.56
2022-11-07T14:51:28.935Z,100814.84
2022-11-07T14:54:04.138Z,100811.34
2022-11-07T14:56:39.085Z,100820.88
2022-11-07T14:59:12.385Z,100824.28
2022-11-07T15:01:52.546Z,100820.75
2022-11-07T15:04:35.880Z,100829.41
2022-11-07T15:07:30.340Z,100820.75
2022-11-07T15:10:11.541Z,100831.09
2022-11-07T15:12:50.187Z,100815.47
2022-11-07T15:15:20.051Z,100828.47
2022-11-07T15:17:52.699Z,100830.16
2022-11-07T15:20:31.194Z,100828.38
2022-11-07T15:23:24.034Z,100830.09
2022-11-07T15:26:07.574Z,100822.22
2022-11-07T15:28:52.668Z,100820.47
2022-11-07T15:31:28.605Z,100823.06
2022-11-07T15:33:57.985Z,100832.50
2022-11-07T15:36:25.486Z,100831.66
2022-11-07T15:38:54.126Z,100816.88
2022-11-07T15:41:21.251Z,100822.97
2022-11-07T15:43:48.456Z,100833.31
2022-11-07T15:46:33.211Z,100829.75
2022-11-07T15:49:00.287Z,100814.97
2022-11-07T15:51:27.293Z,100829.69
2022-11-07T15:53:54.523Z,100834.03
2022-11-07T15:56:23.974Z,100825.34
2022-11-07T15:58:53.669Z,100836.56
2022-11-07T16:01:21.941Z,100837.41
2022-11-07T16:03:49.037Z,100830.47
2022-11-07T16:06:23.648Z,100838.25
2022-11-07T16:08:50.654Z,100829.56
2022-11-07T16:11:17.692Z,100833.00
2022-11-07T16:13:44.893Z,100831.28
2022-11-07T16:16:20.192Z,100834.69
2022-11-07T16:18:50.233Z,100836.41
2022-11-07T16:21:18.182Z,100841.63
2022-11-07T16:23:47.981Z,100840.75
2022-11-07T16:26:17.091Z,100843.38
2022-11-07T16:28:45.416Z,100836.38
2022-11-07T16:31:12.442Z,100845.06
2022-11-07T16:33:39.483Z,100840.75
2022-11-07T16:36:25.182Z,100838.16
2022-11-07T16:38:52.704Z,100836.38
2022-11-07T16:41:19.692Z,100838.16
2022-11-07T16:43:47.077Z,100837.25
2022-11-07T16:46:19.134Z,100832.03
2022-11-07T16:48:48.064Z,100836.44
2022-11-07T16:51:20.058Z,100839.88
2022-11-07T16:53:47.532Z,100837.34
2022-11-07T16:56:23.540Z,100834.75
2022-11-07T16:58:51.057Z,100833.88
2022-11-07T17:01:18.606Z,100843.38
2022-11-07T17:03:45.785Z,100825.16
2022-11-07T17:06:34.704Z,100835.59
2022-11-07T17:09:12.149Z,100836.47
2022-11-07T17:11:40.482Z,100837.34
2022-11-07T17:14:07.548Z,100830.34
2022-11-07T17:16:36.662Z,100832.13
2022-11-07T17:19:05.449Z,100840.00
2022-11-07T17:21:37.019Z,100828.72
2022-11-07T17:24:05.394Z,100834.81
2022-11-07T17:26:36.924Z,100835.72
2022-11-07T17:29:05.507Z,100842.66
2022-11-07T17:31:32.850Z,100840.94
2022-11-07T17:33:59.875Z,100835.78
2022-11-07T17:36:36.240Z,100830.59
2022-11-07T17:39:11.256Z,100835.84
2022-11-07T17:41:40.536Z,100823.69
2022-11-07T17:44:07.692Z,100835.84
2022-11-07T17:46:36.543Z,100832.34
2022-11-07T17:49:09.372Z,100836.63
2022-11-07T17:51:36.455Z,100834.09
2022-11-07T17:54:04.488Z,100834.94
2022-11-07T17:56:32.757Z,100836.69
2022-11-07T17:59:05.787Z,100830.66
2022-11-07T18:01:36.009Z,100835.91
2022-11-07T18:04:04.657Z,100832.50
2022-11-07T18:06:35.654Z,100843.69
2022-11-07T18:09:04.607Z,100844.63
2022-11-07T18:11:32.063Z,100846.38
2022-11-07T18:13:59.875Z,100843.78
2022-11-07T18:16:32.683Z,100842.94
2022-11-07T18:19:01.141Z,100829.97
2022-11-07T18:21:29.032Z,100830.00
2022-11-07T18:23:56.917Z,100842.09
2022-11-07T18:26:30.527Z,100830.88
2022-11-07T18:29:09.550Z,100837.84
2022-11-07T18:31:37.566Z,100848.19
2022-11-07T18:34:06.751Z,100836.94
2022-11-07T18:36:36.870Z,100838.75
2022-11-07T18:39:16.368Z,100841.28
2022-11-07T18:41:44.201Z,100837.00
2022-11-07T18:44:12.369Z,100837.81
2022-11-07T18:46:40.990Z,100847.28
2022-11-07T18:49:08.455Z,100841.25
2022-11-07T18:51:35.773Z,100841.25
2022-11-07T18:54:04.411Z,100843.88
2022-11-07T18:56:31.608Z,100838.66
2022-11-07T18:58:59.194Z,100842.13
2022-11-07T19:01:29.349Z,100838.66
2022-11-07T19:03:57.984Z,100837.69
2022-11-07T19:06:26.912Z,100841.13
2022-11-07T19:08:54.042Z,100841.03
2022-11-07T19:11:34.170Z,100853.09
2022-11-07T19:14:02.802Z,100847.00
2022-11-07T19:16:30.071Z,100841.72
2022-11-07T19:18:59.234Z,100839.94
2022-11-07T19:21:26.565Z,100839.13
2022-11-07T19:23:53.561Z,100856.41
2022-11-07T19:26:21.036Z,100844.28
2022-11-07T19:28:48.115Z,100837.38
2022-11-07T19:31:15.477Z,100843.44
2022-11-07T19:33:43.787Z,100848.59
2022-11-07T19:36:16.475Z,100839.03
2022-11-07T19:38:44.647Z,100837.31
2022-11-07T19:41:13.395Z,100837.31
2022-11-07T19:43:42.403Z,100831.16
2022-11-07T19:46:14.452Z,100835.53
2022-11-07T19:48:41.604Z,100837.31
2022-11-07T19:51:18.303Z,100834.66
2022-11-07T19:53:55.589Z,100834.69
2022-11-07T19:56:24.297Z,100836.38
2022-11-07T19:58:51.428Z,100825.13
2022-11-07T20:01:21.502Z,100840.78
2022-11-07T20:03:51.318Z,100838.16
2022-11-07T20:06:22.813Z,100843.34
2022-11-07T20:08:50.412Z,100845.88
2022-11-07T20:11:20.926Z,100851.13
2022-11-07T20:13:48.170Z,100850.25
2022-11-07T20:16:15.848Z,100848.47
2022-11-07T20:18:43.379Z,100849.31
2022-11-07T20:21:14.111Z,100844.91
2022-11-07T20:23:43.128Z,100840.56
2022-11-07T20:26:18.969Z,100850.19
2022-11-07T20:28:47.440Z,100852.81
2022-11-07T20:31:45.204Z,100858.06
2022-11-07T20:34:15.245Z,100862.38
2022-11-07T20:36:42.641Z,100864.16
2022-11-07T20:39:12.503Z,100867.66
2022-11-07T20:41:42.383Z,100868.56
2022-11-07T20:44:14.384Z,100859.91
2022-11-07T20:46:44.352Z,100859.91
2022-11-07T20:49:13.467Z,100864.28
2022-11-07T20:51:41.147Z,100870.38
2022-11-07T20:54:13.114Z,100867.78
2022-11-07T20:56:41.872Z,100874.72
2022-11-07T20:59:09.746Z,100868.59
2022-11-07T21:01:37.675Z,100875.63
2022-11-07T21:04:14.575Z,100872.19
2022-11-07T21:06:42.031Z,100865.22
2022-11-07T21:09:09.578Z,100872.19
2022-11-07T21:11:36.657Z,100873.06
2022-11-07T21:14:04.678Z,100879.97
2022-11-07T21:16:34.742Z,100877.38
2022-11-07T21:19:04.809Z,100885.25
2022-11-07T21:21:33.479Z,100880.06
2022-11-07T21:24:01.142Z,100877.47
2022-11-07T21:26:33.291Z,100880.97
2022-11-07T21:29:01.486Z,100879.22
2022-11-07T21:31:30.764Z,100874.03
2022-11-07T21:33:57.810Z,100860.94
2022-11-07T21:36:30.471Z,100869.66
2022-11-07T21:39:02.172Z,100861.78
2022-11-07T21:41:30.673Z,100873.13
2022-11-07T21:43:58.045Z,100865.34
2022-11-07T21:46:30.776Z,100869.66
2022-11-07T21:48:59.061Z,100863.59
2022-11-07T21:51:31.646Z,100842.72
2022-11-07T21:54:00.081Z,100857.50
2022-11-07T21:56:32.815Z,100846.22
2022-11-07T21:59:02.299Z,100858.34
2022-11-07T22:01:35.297Z,100848.81
2022-11-07T22:04:09.474Z,100845.31
2022-11-07T22:06:39.478Z,100854.00
2022-11-07T22:09:08.938Z,100848.81
2022-11-07T22:11:36.706Z,100847.06
2022-11-07T22:14:04.653Z,100855.69
2022-11-07T22:16:31.945Z,100851.41
2022-11-07T22:19:00.134Z,100850.56
2022-11-07T22:21:28.091Z,100851.47
2022-11-07T22:23:56.244Z,100844.53
2022-11-07T22:26:25.710Z,100847.13
2022-11-07T22:28:54.029Z,100837.59
2022-11-07T22:31:26.632Z,100845.38
2022-11-07T22:33:54.625Z,100843.63
2022-11-07T22:36:22.480Z,100837.59
2022-11-07T22:38:50.197Z,100841.88
2022-11-07T22:41:20.084Z,100841.03
2022-11-07T22:43:47.518Z,100847.97
2022-11-07T22:46:20.433Z,100849.72
2022-11-07T22:48:48.751Z,100841.91
2022-11-07T22:51:19.788Z,100847.06
2022-11-07T22:53:47.175Z,100840.13
2022-11-07T22:56:17.438Z,100839.28
2022-11-07T22:58:46.198Z,100834.03
2022-11-07T23:01:18.871Z,100845.31
2022-11-07T23:03:47.254Z,100825.44
2022-11-07T23:06:15.137Z,100820.22
2022-11-07T23:08:42.458Z,100827.16
2022-11-07T23:14:06.170Z,100819.38
2022-11-07T23:16:38.956Z,100805.44
2022-11-07T23:19:13.532Z,100808.94
2022-11-07T23:21:41.093Z,100809.72
2022-11-07T23:24:08.596Z,100820.16
2022-11-07T23:26:35.926Z,100809.72
2022-11-07T23:29:14.781Z,100809.72
2022-11-07T23:31:45.311Z,100800.97
2022-11-07T23:34:13.169Z,100808.75
2022-11-07T23:36:43.678Z,100795.63
2022-11-07T23:39:16.626Z,100809.47
2022-11-07T23:41:44.610Z,100805.03
2022-11-07T23:44:12.758Z,100811.91
2022-11-07T23:46:59.034Z,100797.16
2022-11-07T23:49:58.703Z,100780.56
2022-11-07T23:52:25.837Z,100793.53
2022-11-07T23:55:11.401Z,100783.97
2022-11-07T23:57:57.256Z,100796.03
